createdAt,value
2023-03-16T00:00:12.910Z,49.42
2023-03-16T00:05:36.783Z,50.20
2023-03-16T00:10:59.866Z,49.77
2023-03-16T00:16:22.877Z,45.67
2023-03-16T00:21:45.252Z,48.37
2023-03-16T00:27:07.560Z,54.00
2023-03-16T00:32:34.590Z,53.23
2023-03-16T00:37:57.865Z,51.30
2023-03-16T00:43:20.486Z,47.43
2023-03-16T00:48:44.380Z,45.40
2023-03-16T00:54:06.769Z,41.90
2023-03-16T00:59:29.036Z,47.40
2023-03-16T01:04:52.579Z,43.00
2023-03-16T01:10:16.407Z,48.97
2023-03-16T01:15:38.794Z,45.50
2023-03-16T01:21:01.953Z,53.43
2023-03-16T01:26:25.606Z,45.57
2023-03-16T01:31:48.799Z,45.80
2023-03-16T01:37:11.649Z,50.52
2023-03-16T01:42:34.196Z,40.77
2023-03-16T01:47:58.178Z,38.63
2023-03-16T01:53:22.956Z,40.53
2023-03-16T01:58:48.959Z,42.33
2023-03-16T02:04:28.254Z,39.23
2023-03-16T02:09:53.368Z,36.23
2023-03-16T02:15:16.444Z,38.40
2023-03-16T02:21:13.789Z,34.90
2023-03-16T02:26:59.025Z,36.70
2023-03-16T02:32:21.912Z,32.33
2023-03-16T02:37:46.275Z,36.57
2023-03-16T02:43:21.588Z,30.33
2023-03-16T02:48:56.688Z,36.07
2023-03-16T02:54:19.176Z,29.30
2023-03-16T02:59:41.910Z,28.63
2023-03-16T03:05:04.191Z,29.23
2023-03-16T03:10:27.238Z,27.07
2023-03-16T03:15:49.702Z,26.30
2023-03-16T03:21:12.509Z,27.33
2023-03-16T03:26:38.363Z,29.20
2023-03-16T03:32:01.282Z,23.50
2023-03-16T03:37:24.643Z,26.37
2023-03-16T03:42:46.938Z,29.07
2023-03-16T03:48:09.153Z,28.30
2023-03-16T03:53:31.583Z,23.47
2023-03-16T03:58:54.114Z,22.13
2023-03-16T04:04:16.537Z,24.80
2023-03-16T04:09:38.892Z,26.10
2023-03-16T04:15:01.101Z,23.27
2023-03-16T04:20:24.302Z,21.07
2023-03-16T04:25:46.949Z,19.70
2023-03-16T04:31:12.484Z,22.23
2023-03-16T04:36:34.867Z,19.17
2023-03-16T04:41:57.172Z,21.82
2023-03-16T04:47:20.316Z,22.10
2023-03-16T04:52:43.381Z,21.67
2023-03-16T04:58:05.669Z,21.77
2023-03-16T05:03:28.682Z,25.82
2023-03-16T05:08:51.003Z,22.33
2023-03-16T05:14:13.385Z,25.23
2023-03-16T05:19:35.761Z,18.53
2023-03-16T05:24:58.168Z,26.80
2023-03-16T05:30:22.321Z,18.10
2023-03-16T05:35:44.653Z,23.10
2023-03-16T05:41:07.681Z,28.17
2023-03-16T05:46:30.056Z,20.17
2023-03-16T05:51:52.848Z,17.62
2023-03-16T05:57:15.048Z,21.00
2023-03-16T06:02:37.878Z,19.30
2023-03-16T06:08:01.736Z,18.93
2023-03-16T06:13:23.985Z,22.13
2023-03-16T06:18:47.483Z,19.67
2023-03-16T06:24:09.718Z,15.33
2023-03-16T06:29:31.983Z,19.15
2023-03-16T06:34:54.450Z,23.13
2023-03-16T06:40:17.999Z,21.80
2023-03-16T06:45:40.413Z,20.05
2023-03-16T06:51:04.197Z,15.67
2023-03-16T06:56:28.087Z,15.95
2023-03-16T07:01:51.325Z,21.23
2023-03-16T07:07:13.885Z,23.42
2023-03-16T07:12:37.142Z,17.82
2023-03-16T07:18:00.176Z,20.35
2023-03-16T07:23:24.657Z,22.25
2023-03-16T07:28:47.581Z,14.93
2023-03-16T07:34:10.378Z,16.37
2023-03-16T07:39:32.595Z,17.50
2023-03-16T07:44:55.441Z,12.00
2023-03-16T07:50:19.863Z,17.55
2023-03-16T07:55:43.195Z,16.52
2023-03-16T08:01:07.508Z,17.37
2023-03-16T08:06:30.067Z,17.62
2023-03-16T08:11:52.461Z,14.05
2023-03-16T08:17:15.203Z,17.55
2023-03-16T08:22:37.574Z,13.05
2023-03-16T08:28:00.439Z,12.53
2023-03-16T08:33:23.669Z,16.80
2023-03-16T08:39:03.871Z,11.60
2023-03-16T08:44:13.386Z,14.90
2023-03-16T08:49:37.575Z,13.93
2023-03-16T08:55:03.931Z,16.73
2023-03-16T09:00:25.732Z,13.58
2023-03-16T09:05:50.080Z,12.23
2023-03-16T09:11:15.791Z,16.97
2023-03-16T09:16:40.854Z,11.35
2023-03-16T09:22:04.636Z,12.33
2023-03-16T09:27:27.818Z,7.90
2023-03-16T09:32:51.193Z,11.20
2023-03-16T09:38:15.188Z,11.45
2023-03-16T09:44:05.413Z,8.98
2023-03-16T09:49:38.333Z,12.80
2023-03-16T09:55:05.624Z,6.20
2023-03-16T10:00:42.166Z,9.98
2023-03-16T10:06:12.593Z,10.70
2023-03-16T10:12:01.262Z,9.65
2023-03-16T10:17:33.860Z,7.47
2023-03-16T10:23:02.883Z,10.45
2023-03-16T10:28:32.604Z,10.30
2023-03-16T10:33:55.963Z,8.50
2023-03-16T10:39:28.614Z,10.15
2023-03-16T10:44:53.325Z,8.78
2023-03-16T10:50:33.133Z,8.08
2023-03-16T10:56:00.204Z,6.93
2023-03-16T11:01:27.723Z,6.37
2023-03-16T11:07:00.507Z,4.30
2023-03-16T11:12:44.063Z,7.42
2023-03-16T11:18:10.067Z,7.95
2023-03-16T11:23:42.485Z,5.62
2023-03-16T11:29:10.322Z,5.20
2023-03-16T11:34:49.934Z,2.50
2023-03-16T11:40:29.517Z,4.53
2023-03-16T11:46:17.023Z,4.33
2023-03-16T11:51:56.399Z,4.77
2023-03-16T11:57:52.599Z,4.33
2023-03-16T12:03:40.668Z,2.57
2023-03-16T12:09:48.570Z,3.43
2023-03-16T12:15:44.220Z,4.27
2023-03-16T12:21:15.480Z,5.63
2023-03-16T12:26:46.396Z,5.07
2023-03-16T12:32:19.997Z,5.33
2023-03-16T12:37:53.618Z,6.10
2023-03-16T12:43:27.371Z,8.63
2023-03-16T12:48:54.681Z,4.03
2023-03-16T12:54:28.155Z,3.50
2023-03-16T13:00:06.587Z,3.47
2023-03-16T13:05:44.640Z,5.93
2023-03-16T13:11:24.593Z,5.83
2023-03-16T13:16:50.112Z,4.20
2023-03-16T13:22:38.649Z,3.50
2023-03-16T13:28:05.621Z,2.80
2023-03-16T13:33:41.352Z,5.37
2023-03-16T13:39:14.551Z,2.60
2023-03-16T13:44:37.701Z,3.90
2023-03-16T13:50:08.938Z,3.07
2023-03-16T13:55:44.215Z,2.83
2023-03-16T14:01:25.672Z,3.77
2023-03-16T14:12:31.384Z,3.30
2023-03-16T14:17:55.659Z,2.20
2023-03-16T14:23:25.000Z,4.07
2023-03-16T14:28:50.745Z,3.37
2023-03-16T14:34:29.771Z,2.97
2023-03-16T14:39:52.804Z,3.42
2023-03-16T14:45:17.778Z,3.10
2023-03-16T14:50:44.512Z,1.77
2023-03-16T14:56:10.588Z,10.73
2023-03-16T15:01:34.536Z,3.43
2023-03-16T15:06:57.396Z,3.80
2023-03-16T15:12:26.402Z,5.40
2023-03-16T15:17:50.854Z,2.23
2023-03-16T15:23:15.759Z,4.43
2023-03-16T15:28:40.386Z,6.03
2023-03-16T15:34:03.257Z,3.90
2023-03-16T15:39:28.671Z,6.40
2023-03-16T15:44:51.285Z,3.65
2023-03-16T15:50:14.520Z,2.67
2023-03-16T15:55:47.382Z,3.58
2023-03-16T16:01:13.724Z,2.10
2023-03-16T16:06:36.570Z,3.43
2023-03-16T16:11:59.479Z,3.25
2023-03-16T16:23:03.586Z,2.03
2023-03-16T16:28:38.724Z,4.77
2023-03-16T16:34:01.357Z,14.37
2023-03-16T16:39:24.277Z,4.17
2023-03-16T16:44:48.047Z,4.20
2023-03-16T16:50:13.733Z,3.30
2023-03-16T16:55:37.524Z,8.70
2023-03-16T17:01:02.888Z,4.13
2023-03-16T17:06:29.803Z,2.63
2023-03-16T17:11:55.581Z,6.10
2023-03-16T17:17:22.534Z,5.72
2023-03-16T17:22:46.087Z,6.10
2023-03-16T17:28:10.467Z,4.40
2023-03-16T17:33:35.381Z,4.65
2023-03-16T17:38:58.840Z,5.17
2023-03-16T17:44:24.302Z,23.50
2023-03-16T17:49:48.367Z,6.63
2023-03-16T17:55:11.823Z,6.00
2023-03-16T18:00:42.635Z,6.80
2023-03-16T18:06:05.303Z,5.73
2023-03-16T18:11:42.762Z,8.65
2023-03-16T18:17:05.908Z,6.22
2023-03-16T18:22:33.898Z,6.40
2023-03-16T18:27:56.084Z,5.97
2023-03-16T18:33:25.562Z,9.93
2023-03-16T18:38:55.055Z,11.27
2023-03-16T18:44:30.985Z,9.48
2023-03-16T18:49:57.263Z,9.88
2023-03-16T18:55:23.965Z,11.48
2023-03-16T19:00:46.399Z,16.75
2023-03-16T19:06:10.959Z,13.43
2023-03-16T19:11:34.449Z,17.47
2023-03-16T19:16:57.610Z,26.73
2023-03-16T19:22:24.226Z,14.47
2023-03-16T19:27:48.575Z,14.47
2023-03-16T19:38:47.294Z,17.30
2023-03-16T19:44:13.852Z,18.33
2023-03-16T19:49:38.596Z,17.10
2023-03-16T19:55:00.836Z,200.07
2023-03-16T20:00:27.838Z,42.27
2023-03-16T20:05:50.553Z,46.23
2023-03-16T20:11:32.885Z,34.57
2023-03-16T20:16:56.000Z,28.87
2023-03-16T20:22:27.977Z,28.33
2023-03-16T20:27:51.172Z,27.67
2023-03-16T20:33:15.242Z,34.60
2023-03-16T20:38:37.829Z,33.70
2023-03-16T20:44:02.084Z,41.07
2023-03-16T20:49:39.557Z,65.08
2023-03-16T20:55:05.600Z,32.20
2023-03-16T21:00:44.491Z,27.77
2023-03-16T21:06:08.926Z,23.83
2023-03-16T21:11:43.510Z,21.42
2023-03-16T21:17:08.553Z,23.87
2023-03-16T21:22:40.308Z,19.03
2023-03-16T21:28:03.637Z,21.50
2023-03-16T21:33:43.515Z,22.85
2023-03-16T21:39:06.875Z,23.37
2023-03-16T21:44:29.641Z,18.97
2023-03-16T21:49:52.012Z,21.45
2023-03-16T21:55:23.946Z,21.80
2023-03-16T22:00:47.685Z,16.33
2023-03-16T22:06:13.206Z,17.87
2023-03-16T22:11:38.177Z,17.52
2023-03-16T22:17:02.088Z,22.50
2023-03-16T22:22:27.280Z,21.33
2023-03-16T22:27:49.507Z,22.87
2023-03-16T22:33:14.171Z,23.67
2023-03-16T22:38:36.570Z,26.93
2023-03-16T22:44:02.001Z,22.63
2023-03-16T22:49:35.124Z,27.53
2023-03-16T22:54:58.464Z,25.57
2023-03-16T23:00:23.294Z,25.07
2023-03-16T23:05:47.303Z,25.37
2023-03-16T23:11:11.306Z,27.50
2023-03-16T23:16:43.569Z,36.20
2023-03-16T23:22:09.182Z,29.60
2023-03-16T23:27:39.024Z,32.63
2023-03-16T23:38:19.653Z,35.90
2023-03-16T23:43:42.049Z,39.43
2023-03-16T23:49:08.794Z,34.10
2023-03-16T23:54:38.666Z,32.83
